sensor_id;sensor_type;location;lat;lon;timestamp;P1;durP1;ratioP1;P2;durP2;ratioP2
14923;SDS011;7554;43.600;1.480;2023-05-16T00:00:27;5.47;;;2.60;;
14923;SDS011;7554;43.600;1.480;2023-05-16T00:02:59;9.03;;;2.97;;
14923;SDS011;7554;43.600;1.480;2023-05-16T00:05:27;6.47;;;3.03;;
14923;SDS011;7554;43.600;1.480;2023-05-16T00:07:54;5.10;;;3.60;;
14923;SDS011;7554;43.600;1.480;2023-05-16T00:10:23;11.57;;;6.97;;
14923;SDS011;7554;43.600;1.480;2023-05-16T00:12:50;7.50;;;3.07;;
14923;SDS011;7554;43.600;1.480;2023-05-16T00:15:18;6.47;;;3.13;;
14923;SDS011;7554;43.600;1.480;2023-05-16T00:17:47;9.13;;;3.40;;
14923;SDS011;7554;43.600;1.480;2023-05-16T00:20:15;10.30;;;3.37;;
14923;SDS011;7554;43.600;1.480;2023-05-16T00:22:47;7.00;;;3.00;;
14923;SDS011;7554;43.600;1.480;2023-05-16T00:25:14;6.27;;;3.10;;
14923;SDS011;7554;43.600;1.480;2023-05-16T00:27:43;8.80;;;3.07;;
14923;SDS011;7554;43.600;1.480;2023-05-16T00:30:11;7.37;;;3.47;;
14923;SDS011;7554;43.600;1.480;2023-05-16T00:32:38;6.70;;;3.00;;
14923;SDS011;7554;43.600;1.480;2023-05-16T00:35:06;3.20;;;2.73;;
14923;SDS011;7554;43.600;1.480;2023-05-16T00:37:35;8.13;;;2.77;;
14923;SDS011;7554;43.600;1.480;2023-05-16T00:40:03;4.83;;;2.83;;
14923;SDS011;7554;43.600;1.480;2023-05-16T00:42:31;6.60;;;3.37;;
14923;SDS011;7554;43.600;1.480;2023-05-16T00:45:00;6.57;;;2.77;;
14923;SDS011;7554;43.600;1.480;2023-05-16T00:47:28;5.87;;;2.80;;
14923;SDS011;7554;43.600;1.480;2023-05-16T00:49:55;6.97;;;3.40;;
14923;SDS011;7554;43.600;1.480;2023-05-16T00:52:23;5.80;;;3.13;;
14923;SDS011;7554;43.600;1.480;2023-05-16T00:54:51;10.70;;;2.73;;
14923;SDS011;7554;43.600;1.480;2023-05-16T00:57:18;4.40;;;3.00;;
14923;SDS011;7554;43.600;1.480;2023-05-16T00:59:46;6.13;;;3.10;;
14923;SDS011;7554;43.600;1.480;2023-05-16T01:02:14;8.90;;;2.97;;
14923;SDS011;7554;43.600;1.480;2023-05-16T01:04:42;7.77;;;2.80;;
14923;SDS011;7554;43.600;1.480;2023-05-16T01:07:10;6.17;;;3.03;;
14923;SDS011;7554;43.600;1.480;2023-05-16T01:09:37;5.43;;;2.83;;
14923;SDS011;7554;43.600;1.480;2023-05-16T01:12:08;7.17;;;3.13;;
14923;SDS011;7554;43.600;1.480;2023-05-16T01:14:41;6.73;;;2.80;;
14923;SDS011;7554;43.600;1.480;2023-05-16T01:17:18;7.33;;;3.07;;
14923;SDS011;7554;43.600;1.480;2023-05-16T01:22:45;5.70;;;2.73;;
14923;SDS011;7554;43.600;1.480;2023-05-16T01:25:31;8.73;;;3.13;;
14923;SDS011;7554;43.600;1.480;2023-05-16T01:28:14;6.20;;;3.20;;
14923;SDS011;7554;43.600;1.480;2023-05-16T01:30:42;7.43;;;3.30;;
14923;SDS011;7554;43.600;1.480;2023-05-16T01:33:10;5.57;;;2.77;;
14923;SDS011;7554;43.600;1.480;2023-05-16T01:35:38;6.87;;;2.90;;
14923;SDS011;7554;43.600;1.480;2023-05-16T01:38:14;6.30;;;3.17;;
14923;SDS011;7554;43.600;1.480;2023-05-16T01:40:47;6.17;;;2.80;;
14923;SDS011;7554;43.600;1.480;2023-05-16T01:43:23;4.53;;;2.80;;
14923;SDS011;7554;43.600;1.480;2023-05-16T01:45:59;4.93;;;3.07;;
14923;SDS011;7554;43.600;1.480;2023-05-16T01:48:31;5.30;;;3.13;;
14923;SDS011;7554;43.600;1.480;2023-05-16T01:51:02;5.27;;;3.20;;
14923;SDS011;7554;43.600;1.480;2023-05-16T01:53:32;8.60;;;3.30;;
14923;SDS011;7554;43.600;1.480;2023-05-16T01:56:02;5.90;;;3.37;;
14923;SDS011;7554;43.600;1.480;2023-05-16T01:58:34;6.90;;;3.47;;
14923;SDS011;7554;43.600;1.480;2023-05-16T02:01:03;5.07;;;3.00;;
14923;SDS011;7554;43.600;1.480;2023-05-16T02:03:31;4.90;;;3.10;;
14923;SDS011;7554;43.600;1.480;2023-05-16T02:05:59;8.30;;;3.40;;
14923;SDS011;7554;43.600;1.480;2023-05-16T02:08:27;7.40;;;3.33;;
14923;SDS011;7554;43.600;1.480;2023-05-16T02:10:54;5.70;;;2.97;;
14923;SDS011;7554;43.600;1.480;2023-05-16T02:13:21;6.97;;;3.60;;
14923;SDS011;7554;43.600;1.480;2023-05-16T02:15:50;8.63;;;3.20;;
14923;SDS011;7554;43.600;1.480;2023-05-16T02:18:18;6.40;;;3.20;;
14923;SDS011;7554;43.600;1.480;2023-05-16T02:20:47;6.17;;;3.47;;
14923;SDS011;7554;43.600;1.480;2023-05-16T02:23:15;5.80;;;3.27;;
14923;SDS011;7554;43.600;1.480;2023-05-16T02:25:42;5.53;;;3.40;;
14923;SDS011;7554;43.600;1.480;2023-05-16T02:28:09;5.27;;;3.20;;
14923;SDS011;7554;43.600;1.480;2023-05-16T02:30:37;7.57;;;3.93;;
14923;SDS011;7554;43.600;1.480;2023-05-16T02:33:06;6.17;;;3.10;;
14923;SDS011;7554;43.600;1.480;2023-05-16T02:35:33;5.87;;;3.47;;
14923;SDS011;7554;43.600;1.480;2023-05-16T02:38:00;6.77;;;3.30;;
14923;SDS011;7554;43.600;1.480;2023-05-16T02:40:28;5.03;;;2.80;;
14923;SDS011;7554;43.600;1.480;2023-05-16T02:42:55;5.43;;;3.10;;
14923;SDS011;7554;43.600;1.480;2023-05-16T02:45:23;6.03;;;3.10;;
14923;SDS011;7554;43.600;1.480;2023-05-16T02:47:51;4.70;;;2.93;;
14923;SDS011;7554;43.600;1.480;2023-05-16T02:50:19;6.00;;;3.73;;
14923;SDS011;7554;43.600;1.480;2023-05-16T02:52:47;5.20;;;3.23;;
14923;SDS011;7554;43.600;1.480;2023-05-16T02:55:15;4.30;;;3.20;;
14923;SDS011;7554;43.600;1.480;2023-05-16T02:57:42;5.93;;;3.20;;
14923;SDS011;7554;43.600;1.480;2023-05-16T03:00:10;4.97;;;3.37;;
14923;SDS011;7554;43.600;1.480;2023-05-16T03:02:38;6.77;;;3.30;;
14923;SDS011;7554;43.600;1.480;2023-05-16T03:05:06;4.63;;;3.20;;
14923;SDS011;7554;43.600;1.480;2023-05-16T03:07:36;4.90;;;3.53;;
14923;SDS011;7554;43.600;1.480;2023-05-16T03:10:04;6.40;;;3.57;;
14923;SDS011;7554;43.600;1.480;2023-05-16T03:12:32;7.63;;;3.40;;
14923;SDS011;7554;43.600;1.480;2023-05-16T03:15:00;8.07;;;3.40;;
14923;SDS011;7554;43.600;1.480;2023-05-16T03:17:28;6.20;;;3.30;;
14923;SDS011;7554;43.600;1.480;2023-05-16T03:19:55;5.83;;;3.07;;
14923;SDS011;7554;43.600;1.480;2023-05-16T03:22:22;6.93;;;2.70;;
14923;SDS011;7554;43.600;1.480;2023-05-16T03:24:51;5.13;;;3.00;;
14923;SDS011;7554;43.600;1.480;2023-05-16T03:27:18;6.83;;;3.20;;
14923;SDS011;7554;43.600;1.480;2023-05-16T03:29:46;5.60;;;3.57;;
14923;SDS011;7554;43.600;1.480;2023-05-16T03:32:13;3.97;;;3.23;;
14923;SDS011;7554;43.600;1.480;2023-05-16T03:34:40;5.17;;;3.00;;
14923;SDS011;7554;43.600;1.480;2023-05-16T03:37:08;4.83;;;3.23;;
14923;SDS011;7554;43.600;1.480;2023-05-16T03:39:35;5.10;;;3.13;;
14923;SDS011;7554;43.600;1.480;2023-05-16T03:42:04;4.20;;;3.17;;
14923;SDS011;7554;43.600;1.480;2023-05-16T03:44:32;4.07;;;3.00;;
14923;SDS011;7554;43.600;1.480;2023-05-16T03:46:59;4.83;;;3.20;;
14923;SDS011;7554;43.600;1.480;2023-05-16T03:49:26;3.87;;;3.10;;
14923;SDS011;7554;43.600;1.480;2023-05-16T03:51:54;4.83;;;3.20;;
14923;SDS011;7554;43.600;1.480;2023-05-16T03:54:21;3.37;;;2.70;;
14923;SDS011;7554;43.600;1.480;2023-05-16T03:56:48;3.97;;;2.73;;
14923;SDS011;7554;43.600;1.480;2023-05-16T03:59:17;4.40;;;2.90;;
14923;SDS011;7554;43.600;1.480;2023-05-16T04:01:45;5.10;;;3.30;;
14923;SDS011;7554;43.600;1.480;2023-05-16T04:04:12;3.53;;;2.90;;
14923;SDS011;7554;43.600;1.480;2023-05-16T04:06:39;5.10;;;3.07;;
14923;SDS011;7554;43.600;1.480;2023-05-16T04:09:07;4.60;;;3.00;;
14923;SDS011;7554;43.600;1.480;2023-05-16T04:11:34;3.27;;;2.70;;
14923;SDS011;7554;43.600;1.480;2023-05-16T04:14:02;3.47;;;2.67;;
14923;SDS011;7554;43.600;1.480;2023-05-16T04:16:31;3.90;;;2.50;;
14923;SDS011;7554;43.600;1.480;2023-05-16T04:18:58;4.57;;;2.77;;
14923;SDS011;7554;43.600;1.480;2023-05-16T04:21:26;3.70;;;2.67;;
14923;SDS011;7554;43.600;1.480;2023-05-16T04:23:53;4.30;;;2.50;;
14923;SDS011;7554;43.600;1.480;2023-05-16T04:26:21;4.03;;;2.77;;
14923;SDS011;7554;43.600;1.480;2023-05-16T04:28:49;5.13;;;2.63;;
14923;SDS011;7554;43.600;1.480;2023-05-16T04:31:17;5.90;;;3.20;;
14923;SDS011;7554;43.600;1.480;2023-05-16T04:33:45;4.10;;;2.73;;
14923;SDS011;7554;43.600;1.480;2023-05-16T04:36:13;4.30;;;2.87;;
14923;SDS011;7554;43.600;1.480;2023-05-16T04:38:40;5.40;;;2.50;;
14923;SDS011;7554;43.600;1.480;2023-05-16T04:41:07;3.60;;;2.57;;
14923;SDS011;7554;43.600;1.480;2023-05-16T04:43:35;2.90;;;2.60;;
14923;SDS011;7554;43.600;1.480;2023-05-16T04:46:02;4.13;;;2.63;;
14923;SDS011;7554;43.600;1.480;2023-05-16T04:48:30;5.13;;;2.70;;
14923;SDS011;7554;43.600;1.480;2023-05-16T04:50:59;2.73;;;2.47;;
14923;SDS011;7554;43.600;1.480;2023-05-16T04:53:26;3.63;;;2.50;;
14923;SDS011;7554;43.600;1.480;2023-05-16T04:55:54;3.80;;;2.63;;
14923;SDS011;7554;43.600;1.480;2023-05-16T04:58:21;3.97;;;2.50;;
14923;SDS011;7554;43.600;1.480;2023-05-16T05:00:48;3.50;;;2.93;;
14923;SDS011;7554;43.600;1.480;2023-05-16T05:03:16;4.33;;;2.70;;
14923;SDS011;7554;43.600;1.480;2023-05-16T05:05:44;6.73;;;2.83;;
14923;SDS011;7554;43.600;1.480;2023-05-16T05:08:13;4.43;;;2.77;;
14923;SDS011;7554;43.600;1.480;2023-05-16T05:10:40;3.00;;;2.47;;
14923;SDS011;7554;43.600;1.480;2023-05-16T05:13:08;4.23;;;2.63;;
14923;SDS011;7554;43.600;1.480;2023-05-16T05:15:36;4.30;;;2.90;;
14923;SDS011;7554;43.600;1.480;2023-05-16T05:18:03;3.53;;;2.50;;
14923;SDS011;7554;43.600;1.480;2023-05-16T05:20:30;3.03;;;2.73;;
14923;SDS011;7554;43.600;1.480;2023-05-16T05:22:58;3.43;;;2.77;;
14923;SDS011;7554;43.600;1.480;2023-05-16T05:25:26;3.97;;;2.73;;
14923;SDS011;7554;43.600;1.480;2023-05-16T05:27:54;3.73;;;2.90;;
14923;SDS011;7554;43.600;1.480;2023-05-16T05:30:21;3.87;;;2.80;;
14923;SDS011;7554;43.600;1.480;2023-05-16T05:32:48;2.77;;;2.43;;
14923;SDS011;7554;43.600;1.480;2023-05-16T05:35:17;3.47;;;2.70;;
14923;SDS011;7554;43.600;1.480;2023-05-16T05:37:45;4.30;;;2.80;;
14923;SDS011;7554;43.600;1.480;2023-05-16T05:40:12;3.73;;;2.80;;
14923;SDS011;7554;43.600;1.480;2023-05-16T05:42:41;3.70;;;2.57;;
14923;SDS011;7554;43.600;1.480;2023-05-16T05:45:08;3.30;;;2.77;;
14923;SDS011;7554;43.600;1.480;2023-05-16T05:47:37;4.37;;;2.90;;
14923;SDS011;7554;43.600;1.480;2023-05-16T05:50:05;3.47;;;2.63;;
14923;SDS011;7554;43.600;1.480;2023-05-16T05:52:35;3.10;;;2.30;;
14923;SDS011;7554;43.600;1.480;2023-05-16T05:55:03;3.20;;;2.73;;
14923;SDS011;7554;43.600;1.480;2023-05-16T05:57:31;3.87;;;2.23;;
14923;SDS011;7554;43.600;1.480;2023-05-16T06:00:00;2.80;;;2.40;;
14923;SDS011;7554;43.600;1.480;2023-05-16T06:02:27;3.50;;;2.63;;
14923;SDS011;7554;43.600;1.480;2023-05-16T06:04:54;4.27;;;2.63;;
14923;SDS011;7554;43.600;1.480;2023-05-16T06:07:22;3.93;;;2.60;;
14923;SDS011;7554;43.600;1.480;2023-05-16T06:09:49;3.03;;;2.70;;
14923;SDS011;7554;43.600;1.480;2023-05-16T06:12:17;2.90;;;2.53;;
14923;SDS011;7554;43.600;1.480;2023-05-16T06:14:44;5.10;;;3.13;;
14923;SDS011;7554;43.600;1.480;2023-05-16T06:17:13;4.13;;;3.10;;
14923;SDS011;7554;43.600;1.480;2023-05-16T06:19:40;4.63;;;3.57;;
14923;SDS011;7554;43.600;1.480;2023-05-16T06:22:07;4.87;;;3.50;;
14923;SDS011;7554;43.600;1.480;2023-05-16T06:24:35;4.03;;;3.30;;
14923;SDS011;7554;43.600;1.480;2023-05-16T06:27:02;4.23;;;3.50;;
14923;SDS011;7554;43.600;1.480;2023-05-16T06:29:30;4.43;;;3.70;;
14923;SDS011;7554;43.600;1.480;2023-05-16T06:31:57;4.33;;;3.90;;
14923;SDS011;7554;43.600;1.480;2023-05-16T06:34:26;5.23;;;3.63;;
14923;SDS011;7554;43.600;1.480;2023-05-16T06:36:53;5.10;;;3.60;;
14923;SDS011;7554;43.600;1.480;2023-05-16T06:39:21;3.97;;;3.27;;
14923;SDS011;7554;43.600;1.480;2023-05-16T06:41:48;3.87;;;3.20;;
14923;SDS011;7554;43.600;1.480;2023-05-16T06:44:15;3.90;;;3.37;;
14923;SDS011;7554;43.600;1.480;2023-05-16T06:46:43;4.93;;;3.30;;
14923;SDS011;7554;43.600;1.480;2023-05-16T06:49:10;4.80;;;3.67;;
14923;SDS011;7554;43.600;1.480;2023-05-16T06:51:39;4.60;;;3.00;;
14923;SDS011;7554;43.600;1.480;2023-05-16T06:54:06;3.47;;;2.83;;
14923;SDS011;7554;43.600;1.480;2023-05-16T06:56:34;3.93;;;3.53;;
14923;SDS011;7554;43.600;1.480;2023-05-16T06:59:02;4.40;;;3.23;;
14923;SDS011;7554;43.600;1.480;2023-05-16T07:01:30;4.53;;;2.90;;
14923;SDS011;7554;43.600;1.480;2023-05-16T07:03:57;3.13;;;2.83;;
14923;SDS011;7554;43.600;1.480;2023-05-16T07:06:24;3.57;;;3.00;;
14923;SDS011;7554;43.600;1.480;2023-05-16T07:08:53;4.20;;;3.10;;
14923;SDS011;7554;43.600;1.480;2023-05-16T07:11:20;5.13;;;2.77;;
14923;SDS011;7554;43.600;1.480;2023-05-16T07:13:48;7.77;;;3.43;;
14923;SDS011;7554;43.600;1.480;2023-05-16T07:16:15;3.30;;;2.83;;
14923;SDS011;7554;43.600;1.480;2023-05-16T07:18:42;4.17;;;2.73;;
14923;SDS011;7554;43.600;1.480;2023-05-16T07:21:09;4.20;;;2.93;;
14923;SDS011;7554;43.600;1.480;2023-05-16T07:23:37;7.07;;;2.70;;
14923;SDS011;7554;43.600;1.480;2023-05-16T07:26:05;4.10;;;2.80;;
14923;SDS011;7554;43.600;1.480;2023-05-16T07:28:33;5.40;;;2.90;;
14923;SDS011;7554;43.600;1.480;2023-05-16T07:31:00;4.43;;;2.90;;
14923;SDS011;7554;43.600;1.480;2023-05-16T07:33:27;4.63;;;2.60;;
14923;SDS011;7554;43.600;1.480;2023-05-16T07:35:55;3.43;;;2.87;;
14923;SDS011;7554;43.600;1.480;2023-05-16T07:38:22;4.83;;;2.80;;
14923;SDS011;7554;43.600;1.480;2023-05-16T07:40:50;3.30;;;2.73;;
14923;SDS011;7554;43.600;1.480;2023-05-16T07:43:18;3.30;;;2.70;;
14923;SDS011;7554;43.600;1.480;2023-05-16T07:45:46;3.50;;;2.60;;
14923;SDS011;7554;43.600;1.480;2023-05-16T07:48:13;3.93;;;2.53;;
14923;SDS011;7554;43.600;1.480;2023-05-16T07:50:41;3.53;;;2.40;;
14923;SDS011;7554;43.600;1.480;2023-05-16T07:53:09;2.83;;;2.63;;
14923;SDS011;7554;43.600;1.480;2023-05-16T07:55:36;3.90;;;2.80;;
14923;SDS011;7554;43.600;1.480;2023-05-16T07:58:03;3.50;;;2.87;;
14923;SDS011;7554;43.600;1.480;2023-05-16T08:00:32;3.23;;;2.60;;
14923;SDS011;7554;43.600;1.480;2023-05-16T08:02:59;3.47;;;2.47;;
14923;SDS011;7554;43.600;1.480;2023-05-16T08:05:27;4.63;;;2.53;;
14923;SDS011;7554;43.600;1.480;2023-05-16T08:07:54;3.90;;;2.37;;
14923;SDS011;7554;43.600;1.480;2023-05-16T08:10:22;5.93;;;2.40;;
14923;SDS011;7554;43.600;1.480;2023-05-16T08:12:49;3.70;;;2.67;;
14923;SDS011;7554;43.600;1.480;2023-05-16T08:15:17;3.57;;;2.60;;
14923;SDS011;7554;43.600;1.480;2023-05-16T08:17:47;3.60;;;2.80;;
14923;SDS011;7554;43.600;1.480;2023-05-16T08:20:14;5.97;;;2.87;;
14923;SDS011;7554;43.600;1.480;2023-05-16T08:22:42;4.10;;;2.60;;
14923;SDS011;7554;43.600;1.480;2023-05-16T08:25:09;2.93;;;2.20;;
14923;SDS011;7554;43.600;1.480;2023-05-16T08:27:36;2.70;;;2.40;;
14923;SDS011;7554;43.600;1.480;2023-05-16T08:30:04;3.20;;;2.60;;
14923;SDS011;7554;43.600;1.480;2023-05-16T08:32:32;3.57;;;2.50;;
14923;SDS011;7554;43.600;1.480;2023-05-16T08:35:03;5.70;;;2.50;;
14923;SDS011;7554;43.600;1.480;2023-05-16T08:37:30;5.53;;;2.17;;
14923;SDS011;7554;43.600;1.480;2023-05-16T08:39:57;3.13;;;2.37;;
14923;SDS011;7554;43.600;1.480;2023-05-16T08:42:25;2.87;;;2.07;;
14923;SDS011;7554;43.600;1.480;2023-05-16T08:44:52;3.67;;;2.07;;
14923;SDS011;7554;43.600;1.480;2023-05-16T08:47:20;2.50;;;1.83;;
14923;SDS011;7554;43.600;1.480;2023-05-16T08:49:50;3.43;;;2.27;;
14923;SDS011;7554;43.600;1.480;2023-05-16T08:52:21;3.63;;;1.93;;
14923;SDS011;7554;43.600;1.480;2023-05-16T08:54:52;2.20;;;1.80;;
14923;SDS011;7554;43.600;1.480;2023-05-16T08:57:22;3.03;;;1.70;;
14923;SDS011;7554;43.600;1.480;2023-05-16T08:59:49;2.73;;;2.17;;
14923;SDS011;7554;43.600;1.480;2023-05-16T09:02:19;1.60;;;1.50;;
14923;SDS011;7554;43.600;1.480;2023-05-16T09:04:47;2.60;;;1.50;;
14923;SDS011;7554;43.600;1.480;2023-05-16T09:07:15;2.93;;;1.67;;
14923;SDS011;7554;43.600;1.480;2023-05-16T09:09:44;2.70;;;1.77;;
14923;SDS011;7554;43.600;1.480;2023-05-16T09:12:11;1.87;;;1.60;;
14923;SDS011;7554;43.600;1.480;2023-05-16T09:14:39;1.70;;;1.60;;
14923;SDS011;7554;43.600;1.480;2023-05-16T09:17:08;3.20;;;1.90;;
14923;SDS011;7554;43.600;1.480;2023-05-16T09:19:37;2.73;;;1.73;;
14923;SDS011;7554;43.600;1.480;2023-05-16T09:22:05;3.17;;;1.80;;
14923;SDS011;7554;43.600;1.480;2023-05-16T09:24:37;2.77;;;1.60;;
14923;SDS011;7554;43.600;1.480;2023-05-16T09:27:09;2.33;;;1.50;;
14923;SDS011;7554;43.600;1.480;2023-05-16T09:29:39;3.97;;;1.70;;
14923;SDS011;7554;43.600;1.480;2023-05-16T09:32:11;2.10;;;1.67;;
14923;SDS011;7554;43.600;1.480;2023-05-16T09:34:42;2.47;;;1.67;;
14923;SDS011;7554;43.600;1.480;2023-05-16T09:37:12;4.70;;;1.50;;
14923;SDS011;7554;43.600;1.480;2023-05-16T09:39:40;3.27;;;1.70;;
14923;SDS011;7554;43.600;1.480;2023-05-16T09:42:14;3.50;;;1.70;;
14923;SDS011;7554;43.600;1.480;2023-05-16T09:44:44;1.70;;;1.33;;
14923;SDS011;7554;43.600;1.480;2023-05-16T09:47:13;5.37;;;1.73;;
14923;SDS011;7554;43.600;1.480;2023-05-16T09:49:41;1.90;;;1.60;;
14923;SDS011;7554;43.600;1.480;2023-05-16T09:52:10;2.03;;;1.33;;
14923;SDS011;7554;43.600;1.480;2023-05-16T09:54:38;1.87;;;1.30;;
14923;SDS011;7554;43.600;1.480;2023-05-16T09:57:05;2.67;;;1.80;;
14923;SDS011;7554;43.600;1.480;2023-05-16T09:59:38;1.70;;;1.30;;
14923;SDS011;7554;43.600;1.480;2023-05-16T10:02:06;1.93;;;1.47;;
14923;SDS011;7554;43.600;1.480;2023-05-16T10:04:33;2.33;;;1.40;;
14923;SDS011;7554;43.600;1.480;2023-05-16T10:07:01;2.37;;;1.70;;
14923;SDS011;7554;43.600;1.480;2023-05-16T10:09:30;2.40;;;1.50;;
14923;SDS011;7554;43.600;1.480;2023-05-16T10:12:00;3.17;;;1.50;;
14923;SDS011;7554;43.600;1.480;2023-05-16T10:14:29;3.10;;;1.50;;
14923;SDS011;7554;43.600;1.480;2023-05-16T10:17:01;3.40;;;1.30;;
14923;SDS011;7554;43.600;1.480;2023-05-16T10:19:31;2.47;;;1.40;;
14923;SDS011;7554;43.600;1.480;2023-05-16T10:22:03;1.90;;;1.40;;
14923;SDS011;7554;43.600;1.480;2023-05-16T10:24:34;2.37;;;1.50;;
14923;SDS011;7554;43.600;1.480;2023-05-16T10:27:13;2.13;;;1.50;;
14923;SDS011;7554;43.600;1.480;2023-05-16T10:29:41;1.80;;;1.40;;
14923;SDS011;7554;43.600;1.480;2023-05-16T10:32:11;2.80;;;1.73;;
14923;SDS011;7554;43.600;1.480;2023-05-16T10:34:39;6.27;;;1.90;;
14923;SDS011;7554;43.600;1.480;2023-05-16T10:37:08;1.97;;;1.37;;
14923;SDS011;7554;43.600;1.480;2023-05-16T10:39:35;1.80;;;1.30;;
14923;SDS011;7554;43.600;1.480;2023-05-16T10:42:05;2.53;;;1.37;;
14923;SDS011;7554;43.600;1.480;2023-05-16T10:44:33;1.90;;;1.30;;
14923;SDS011;7554;43.600;1.480;2023-05-16T10:47:00;5.20;;;1.70;;
14923;SDS011;7554;43.600;1.480;2023-05-16T10:49:31;4.20;;;1.87;;
14923;SDS011;7554;43.600;1.480;2023-05-16T10:52:02;3.97;;;1.80;;
14923;SDS011;7554;43.600;1.480;2023-05-16T10:54:34;2.43;;;1.40;;
14923;SDS011;7554;43.600;1.480;2023-05-16T10:57:04;1.93;;;1.30;;
14923;SDS011;7554;43.600;1.480;2023-05-16T10:59:39;2.20;;;1.60;;
14923;SDS011;7554;43.600;1.480;2023-05-16T11:02:20;1.73;;;1.40;;
14923;SDS011;7554;43.600;1.480;2023-05-16T11:04:53;1.40;;;1.20;;
14923;SDS011;7554;43.600;1.480;2023-05-16T11:07:24;3.00;;;1.27;;
14923;SDS011;7554;43.600;1.480;2023-05-16T11:10:03;2.67;;;1.50;;
14923;SDS011;7554;43.600;1.480;2023-05-16T11:15:23;1.57;;;1.47;;
14923;SDS011;7554;43.600;1.480;2023-05-16T11:18:02;1.77;;;1.20;;
14923;SDS011;7554;43.600;1.480;2023-05-16T11:20:35;3.30;;;1.33;;
14923;SDS011;7554;43.600;1.480;2023-05-16T11:23:20;4.67;;;1.37;;
14923;SDS011;7554;43.600;1.480;2023-05-16T11:25:51;1.27;;;1.00;;
14923;SDS011;7554;43.600;1.480;2023-05-16T11:28:20;1.97;;;1.10;;
14923;SDS011;7554;43.600;1.480;2023-05-16T11:30:50;2.70;;;1.30;;
14923;SDS011;7554;43.600;1.480;2023-05-16T11:33:20;1.90;;;1.07;;
14923;SDS011;7554;43.600;1.480;2023-05-16T11:36:02;2.47;;;1.27;;
14923;SDS011;7554;43.600;1.480;2023-05-16T11:38:31;3.67;;;1.40;;
14923;SDS011;7554;43.600;1.480;2023-05-16T11:41:03;3.40;;;1.40;;
14923;SDS011;7554;43.600;1.480;2023-05-16T11:43:36;1.60;;;1.10;;
14923;SDS011;7554;43.600;1.480;2023-05-16T11:46:04;1.57;;;0.80;;
14923;SDS011;7554;43.600;1.480;2023-05-16T11:48:32;1.73;;;0.70;;
14923;SDS011;7554;43.600;1.480;2023-05-16T11:51:02;2.17;;;1.07;;
14923;SDS011;7554;43.600;1.480;2023-05-16T11:53:29;1.03;;;0.80;;
14923;SDS011;7554;43.600;1.480;2023-05-16T11:55:58;0.97;;;0.67;;
14923;SDS011;7554;43.600;1.480;2023-05-16T11:58:26;1.07;;;0.70;;
14923;SDS011;7554;43.600;1.480;2023-05-16T12:00:53;4.50;;;0.90;;
14923;SDS011;7554;43.600;1.480;2023-05-16T12:03:21;2.83;;;0.70;;
14923;SDS011;7554;43.600;1.480;2023-05-16T12:05:49;1.80;;;1.00;;
14923;SDS011;7554;43.600;1.480;2023-05-16T12:08:19;2.17;;;0.97;;
14923;SDS011;7554;43.600;1.480;2023-05-16T12:10:49;2.50;;;1.00;;
14923;SDS011;7554;43.600;1.480;2023-05-16T12:13:18;3.37;;;1.03;;
14923;SDS011;7554;43.600;1.480;2023-05-16T12:15:46;1.87;;;0.93;;
14923;SDS011;7554;43.600;1.480;2023-05-16T12:18:14;2.77;;;1.00;;
14923;SDS011;7554;43.600;1.480;2023-05-16T12:20:42;1.13;;;0.80;;
14923;SDS011;7554;43.600;1.480;2023-05-16T12:23:10;2.43;;;1.20;;
14923;SDS011;7554;43.600;1.480;2023-05-16T12:25:43;1.87;;;0.90;;
14923;SDS011;7554;43.600;1.480;2023-05-16T12:28:11;1.60;;;0.90;;
14923;SDS011;7554;43.600;1.480;2023-05-16T12:30:40;1.97;;;0.90;;
14923;SDS011;7554;43.600;1.480;2023-05-16T12:33:08;2.60;;;0.90;;
14923;SDS011;7554;43.600;1.480;2023-05-16T12:35:37;2.83;;;0.90;;
14923;SDS011;7554;43.600;1.480;2023-05-16T12:38:05;4.57;;;1.10;;
14923;SDS011;7554;43.600;1.480;2023-05-16T12:40:33;2.57;;;0.77;;
14923;SDS011;7554;43.600;1.480;2023-05-16T12:43:05;2.67;;;1.10;;
14923;SDS011;7554;43.600;1.480;2023-05-16T12:45:39;1.80;;;1.07;;
14923;SDS011;7554;43.600;1.480;2023-05-16T12:48:10;3.53;;;1.10;;
14923;SDS011;7554;43.600;1.480;2023-05-16T12:50:38;3.33;;;1.17;;
14923;SDS011;7554;43.600;1.480;2023-05-16T12:53:09;2.23;;;1.00;;
14923;SDS011;7554;43.600;1.480;2023-05-16T12:55:39;1.83;;;1.13;;
14923;SDS011;7554;43.600;1.480;2023-05-16T12:58:09;2.53;;;0.80;;
14923;SDS011;7554;43.600;1.480;2023-05-16T13:00:36;2.97;;;1.20;;
14923;SDS011;7554;43.600;1.480;2023-05-16T13:03:04;4.07;;;1.13;;
14923;SDS011;7554;43.600;1.480;2023-05-16T13:05:32;3.20;;;1.20;;
14923;SDS011;7554;43.600;1.480;2023-05-16T13:08:00;4.57;;;1.43;;
14923;SDS011;7554;43.600;1.480;2023-05-16T13:10:28;2.23;;;0.87;;
14923;SDS011;7554;43.600;1.480;2023-05-16T13:12:55;3.30;;;1.00;;
14923;SDS011;7554;43.600;1.480;2023-05-16T13:15:25;2.20;;;1.10;;
14923;SDS011;7554;43.600;1.480;2023-05-16T13:17:52;6.13;;;1.97;;
14923;SDS011;7554;43.600;1.480;2023-05-16T13:20:20;4.43;;;1.70;;
14923;SDS011;7554;43.600;1.480;2023-05-16T13:22:47;3.57;;;1.27;;
14923;SDS011;7554;43.600;1.480;2023-05-16T13:25:15;5.93;;;1.17;;
14923;SDS011;7554;43.600;1.480;2023-05-16T13:27:42;1.20;;;0.80;;
14923;SDS011;7554;43.600;1.480;2023-05-16T13:30:10;5.90;;;1.30;;
14923;SDS011;7554;43.600;1.480;2023-05-16T13:32:39;2.77;;;1.30;;
14923;SDS011;7554;43.600;1.480;2023-05-16T13:35:06;2.40;;;1.00;;
14923;SDS011;7554;43.600;1.480;2023-05-16T13:37:35;2.17;;;1.00;;
14923;SDS011;7554;43.600;1.480;2023-05-16T13:40:03;3.83;;;1.10;;
14923;SDS011;7554;43.600;1.480;2023-05-16T13:42:34;3.03;;;1.30;;
14923;SDS011;7554;43.600;1.480;2023-05-16T13:45:02;3.33;;;2.47;;
14923;SDS011;7554;43.600;1.480;2023-05-16T13:47:31;4.93;;;3.80;;
14923;SDS011;7554;43.600;1.480;2023-05-16T13:49:59;3.30;;;1.50;;
14923;SDS011;7554;43.600;1.480;2023-05-16T13:52:31;3.60;;;1.30;;
14923;SDS011;7554;43.600;1.480;2023-05-16T13:54:59;5.60;;;1.30;;
14923;SDS011;7554;43.600;1.480;2023-05-16T13:57:26;1.63;;;1.10;;
14923;SDS011;7554;43.600;1.480;2023-05-16T13:59:54;6.13;;;1.13;;
14923;SDS011;7554;43.600;1.480;2023-05-16T14:02:21;3.97;;;1.40;;
14923;SDS011;7554;43.600;1.480;2023-05-16T14:04:50;2.87;;;1.10;;
14923;SDS011;7554;43.600;1.480;2023-05-16T14:07:18;3.07;;;1.03;;
14923;SDS011;7554;43.600;1.480;2023-05-16T14:09:46;3.33;;;1.30;;
14923;SDS011;7554;43.600;1.480;2023-05-16T14:12:13;5.37;;;1.23;;
14923;SDS011;7554;43.600;1.480;2023-05-16T14:14:40;2.03;;;1.20;;
14923;SDS011;7554;43.600;1.480;2023-05-16T14:17:08;3.87;;;1.20;;
14923;SDS011;7554;43.600;1.480;2023-05-16T14:19:35;5.57;;;1.20;;
14923;SDS011;7554;43.600;1.480;2023-05-16T14:22:03;4.53;;;1.40;;
14923;SDS011;7554;43.600;1.480;2023-05-16T14:24:31;2.20;;;1.20;;
14923;SDS011;7554;43.600;1.480;2023-05-16T14:26:59;3.47;;;1.30;;
14923;SDS011;7554;43.600;1.480;2023-05-16T14:29:27;2.80;;;1.27;;
14923;SDS011;7554;43.600;1.480;2023-05-16T14:31:54;2.63;;;1.10;;
14923;SDS011;7554;43.600;1.480;2023-05-16T14:34:22;2.87;;;1.17;;
14923;SDS011;7554;43.600;1.480;2023-05-16T14:36:49;2.97;;;1.30;;
14923;SDS011;7554;43.600;1.480;2023-05-16T14:39:16;2.10;;;1.23;;
14923;SDS011;7554;43.600;1.480;2023-05-16T14:41:45;2.13;;;1.20;;
14923;SDS011;7554;43.600;1.480;2023-05-16T14:44:12;3.10;;;1.10;;
14923;SDS011;7554;43.600;1.480;2023-05-16T14:46:40;2.93;;;1.10;;
14923;SDS011;7554;43.600;1.480;2023-05-16T14:49:07;8.03;;;2.90;;
14923;SDS011;7554;43.600;1.480;2023-05-16T14:51:35;6.60;;;2.70;;
14923;SDS011;7554;43.600;1.480;2023-05-16T14:54:02;2.50;;;1.27;;
14923;SDS011;7554;43.600;1.480;2023-05-16T14:56:30;2.23;;;1.00;;
14923;SDS011;7554;43.600;1.480;2023-05-16T14:58:58;3.20;;;1.47;;
14923;SDS011;7554;43.600;1.480;2023-05-16T15:01:26;3.27;;;1.30;;
14923;SDS011;7554;43.600;1.480;2023-05-16T15:03:53;2.50;;;1.10;;
14923;SDS011;7554;43.600;1.480;2023-05-16T15:06:21;4.20;;;1.40;;
14923;SDS011;7554;43.600;1.480;2023-05-16T15:08:48;4.13;;;1.20;;
14923;SDS011;7554;43.600;1.480;2023-05-16T15:11:16;3.50;;;1.20;;
14923;SDS011;7554;43.600;1.480;2023-05-16T15:13:43;3.90;;;1.13;;